Indianapolis, Indiana
Traffic Map
Current Weather Conditions
Indianapolis, Indiana
Clear
Clear

Feels Like: 5°
Wind Chill: Ceiling: Unl
Heat Index: Visibility: 10mi
Dew Point: Wind: 7mph
Humidity: 71% Direction: 20° (NNE)
Pressure: 30.06in Gusts: 0mph
Raw Report DataKIND 280354Z 02006KT 10SM CLR 07/02 A3006 RMK AO2 SLP182 T00720022
Traffic Incident Summary
Active as of:
Severity:
Category:
InformationThere was an issue retrieving the traffic information for this location. Please try a different location or try again shortly.
Advertisements
Track Severe Weather on mobile